METAR Data
IDs: Format: Raw Decoded Include TAF

Data at: 0729 UTC 03 Aug 2021

KMHV 030700Z AUTO 28010KT 10SM CLR 29/04 A3007 RMK A01
KMHV 030640Z AUTO 29010G17KT 10SM CLR 29/05 A3007 RMK A01
KMHV 030620Z AUTO 27010G17KT 10SM CLR 29/04 A3006 RMK A01
KMHV 030600Z AUTO 27013KT 10SM CLR 29/04 A3006 RMK A01
KMHV 030540Z AUTO 26013G19KT 10SM 29/05 A3006 RMK A01
KMHV 030520Z AUTO 26014KT 10SM CLR 29/05 A3006 RMK A01
KMHV 030500Z AUTO 25014KT 10SM CLR 29/05 A3007 RMK A01
KMHV 030440Z AUTO 25012KT 10SM CLR 30/05 A3006 RMK A01
KMHV 030420Z AUTO 24010G15KT 10SM CLR 30/06 A3006 RMK A01
KMHV 030400Z AUTO 26010KT 10SM CLR 30/05 A3006 RMK A01
KMHV 030340Z AUTO 27012KT 10SM CLR 31/05 A3005 RMK A01
KMHV 030320Z AUTO 27012KT 10SM CLR 31/06 A3005 RMK A01
KMHV 030300Z AUTO 29015KT 10SM CLR 32/06 A3005 RMK A01
KMHV 030240Z AUTO 29012G19KT 10SM CLR 32/06 A3005 RMK A01
KMHV 030220Z AUTO 28015G20KT 10SM CLR 33/06 A3004 RMK A01
KMHV 030200Z AUTO 29016KT 10SM CLR 35/05 A3004 RMK A01
KMHV 030140Z AUTO 28013KT 10SM CLR 35/04 A3004 RMK A01
KMHV 030120Z AUTO 28014KT 10SM CLR 36/04 A3004 RMK A01
KMHV 030100Z AUTO 29013KT 10SM CLR 37/03 A3004 RMK A01
KMHV 030040Z AUTO 22010G16KT 10SM CLR 38/M03 A3004 RMK A01
KMHV 030020Z AUTO 21007G17KT 10SM CLR 38/M04 A3004 RMK A01
KMHV 030000Z AUTO 27012KT 10SM CLR 38/M04 A3004 RMK A01
KMHV 022340Z AUTO 23012KT 10SM CLR 39/M04 A3004 RMK A01
KMHV 022320Z AUTO 22009KT 10SM CLR 38/M04 A3005 RMK A01
KMHV 022300Z AUTO 19007G13KT 10SM CLR 38/M04 A3006 RMK A01
KMHV 022240Z AUTO 27005G11KT 10SM CLR 38/M03 A3006 RMK A01
KMHV 022220Z AUTO 19011G18KT 10SM CLR 39/M03 A3006 RMK A01
KMHV 022200Z AUTO VRB04G13KT 10SM CLR 37/M02 A3007 RMK A01
KMHV 022140Z AUTO 16011KT 130V190 10SM CLR 38/M02 A3007 RMK A01
KMHV 022120Z AUTO VRB04KT 10SM CLR 37/M02 A3008 RMK A01
KMHV 022100Z AUTO VRB06G12KT 10SM CLR 38/M02 A3009 RMK A01
KMHV 022040Z AUTO VRB05KT 10SM CLR 37/M01 A3010 RMK A01
KMHV 022020Z AUTO 16010G18KT 10SM CLR 38/00 A3010 RMK A01
KMHV 022000Z AUTO VRB05G11KT 10SM CLR 37/M01 A3011 RMK A01
KMHV 021940Z AUTO VRB06KT 10SM CLR 37/M01 A3012 RMK A01
KMHV 021920Z AUTO 22007G12KT 10SM CLR 36/M00 A3012 RMK A01
KMHV 021900Z AUTO 19006KT 10SM CLR 36/M01 A3013 RMK A01
KMHV 021840Z AUTO 00000KT 10SM CLR 35/M01 A3013 RMK A01
KMHV 021820Z AUTO 00000KT 10SM CLR 35/M01 A3014 RMK A01
KMHV 021800Z AUTO 00000KT 10SM CLR 35/M00 A3014 RMK A01
KMHV 021740Z AUTO VRB03KT 10SM CLR 34/01 A3015 RMK A01
KMHV 021720Z AUTO 00000KT 10SM CLR 33/01 A3015 RMK A01
KMHV 021700Z AUTO 10004KT 10SM CLR 33/02 A3016 RMK A01
KMHV 021640Z AUTO 15004KT 10SM CLR 32/02 A3016 RMK A01
KMHV 021620Z AUTO 11003KT 10SM CLR 31/02 A3016 RMK A01
KMHV 021600Z AUTO 00000KT 10SM CLR 30/02 A3016 RMK A01
KMHV 021540Z AUTO 00000KT 10SM CLR 29/02 A3016 RMK A01
KMHV 021520Z AUTO 00000KT 10SM CLR 28/02 A3016 RMK A01
KMHV 021500Z AUTO 00000KT 10SM 27/02 A3016 RMK A01
KMHV 021440Z AUTO 00000KT 10SM 27/02 A3015 RMK A01
KMHV 021420Z AUTO 00000KT 7SM CLR 26/02 A3015 RMK A01
KMHV 021400Z AUTO 00000KT 10SM CLR 25/01 A3015 RMK A01
KMHV 021340Z AUTO 32004KT 10SM CLR 24/01 A3014 RMK A01
KMHV 021320Z AUTO 32006KT 9SM CLR 23/01 A3014 RMK A01
KMHV 021300Z AUTO 32006KT 10SM CLR 23/01 A3013 RMK A01
KMHV 021240Z AUTO 32005KT 10SM CLR 23/01 A3012 RMK A01
KMHV 021220Z AUTO 33005KT 10SM CLR 23/01 A3012 RMK A01
KMHV 021200Z AUTO 00000KT 10SM CLR 23/01 A3012 RMK A01
KMHV 021140Z AUTO 26006KT 10SM CLR 24/02 A3011 RMK A01
KMHV 021120Z AUTO 28006KT 10SM CLR 24/02 A3011 RMK A01
KMHV 021100Z AUTO 24004KT 10SM CLR 25/02 A3011 RMK A01
KMHV 021040Z AUTO 28007KT 10SM CLR 24/02 A3010 RMK A01
KMHV 021020Z AUTO 27007KT 10SM CLR 25/03 A3010 RMK A01
KMHV 021000Z AUTO 25008KT 10SM CLR 26/03 A3010 RMK A01
KMHV 020940Z AUTO 26008KT 10SM 26/03 A3010 RMK A01
KMHV 020920Z AUTO 25010KT 10SM 26/03 A3010 RMK A01
KMHV 020900Z AUTO 10SM 26/03 A3011 RMK A01
KMHV 020840Z AUTO 22006KT 10SM CLR 26/02 A3011 RMK A01
KMHV 020820Z AUTO 23008KT 10SM CLR 27/03 A3011 RMK A01
KMHV 020800Z AUTO 23006KT 10SM CLR 28/03 A3011 RMK A01
KMHV 020740Z AUTO 10SM CLR 29/03 A3011 RMK A01
KMHV 020720Z AUTO 10SM CLR 29/02 A3010 RMK A01
KMHV 020700Z AUTO 29006G14KT 10SM CLR 30/02 A3010 RMK A01
KMHV 020640Z AUTO 29012G18KT 10SM CLR 31/02 A3010 RMK A01
KMHV 020620Z AUTO 29014G20KT 10SM CLR 30/02 A3009 RMK A01
KMHV 020600Z AUTO 30015KT 10SM CLR 30/02 A3009 RMK A01
KMHV 020540Z AUTO 28012G18KT 10SM CLR 31/02 A3010 RMK A01
KMHV 020520Z AUTO 28011G19KT 10SM CLR 31/02 A3010 RMK A01
KMHV 020500Z AUTO 29014KT 10SM CLR 31/03 A3009 RMK A01
KMHV 020440Z AUTO 28012G22KT 10SM CLR 31/02 A3009 RMK A01
KMHV 020420Z AUTO 28011G17KT 10SM CLR 31/02 A3008 RMK A01
KMHV 020400Z AUTO 28012G18KT 10SM CLR 32/03 A3007 RMK A01
KMHV 020340Z AUTO 27012G18KT 10SM CLR 32/03 A3007 RMK A01
KMHV 020320Z AUTO 29011KT 10SM CLR 33/03 A3007 RMK A01
KMHV 020300Z AUTO 29010G18KT 10SM CLR 33/03 A3007 RMK A01
KMHV 020240Z AUTO 28012KT 10SM CLR 34/03 A3006 RMK A01
KMHV 020220Z AUTO 22014KT 10SM CLR 34/M01 A3006 RMK A01
KMHV 020200Z AUTO 22014KT 10SM CLR 35/M01 A3006 RMK A01
KMHV 020140Z AUTO 22017KT 10SM CLR 35/M01 A3006 RMK A01
KMHV 020120Z AUTO 22019KT 10SM CLR 36/M01 A3005 RMK A01
KMHV 020100Z AUTO 20017G24KT 10SM 36/M00 A3005 RMK A01
KMHV 020040Z AUTO 20014G22KT 10SM CLR 37/M00 A3006 RMK A01
KMHV 020020Z AUTO 20012KT 10SM CLR 37/M02 A3005 RMK A01
KMHV 020000Z AUTO 19015G23KT 10SM CLR 37/M01 A3006 RMK A01
KMHV 012340Z AUTO 19012G20KT 10SM CLR 37/M02 A3006 RMK A01
KMHV 012320Z AUTO 20012G20KT 10SM CLR 37/M01 A3006 RMK A01
KMHV 012300Z AUTO 21014G22KT 10SM CLR 37/M04 A3007 RMK A01
KMHV 012240Z AUTO 17014G23KT 10SM CLR 37/M03 A3007 RMK A01
KMHV 012220Z AUTO 17013KT 10SM CLR 37/M02 A3008 RMK A01
KMHV 012200Z AUTO VRB06G12KT 10SM CLR 37/M01 A3008 RMK A01
KMHV 012140Z AUTO VRB06G13KT 10SM CLR 37/01 A3009 RMK A01
KMHV 012120Z AUTO VRB04G11KT 10SM CLR 36/02 A3009 RMK A01
KMHV 012100Z AUTO 16007KT 10SM CLR 36/03 A3010 RMK A01
KMHV 012040Z AUTO 18005G13KT 10SM CLR 35/05 A3010 RMK A01
KMHV 012020Z AUTO 30008KT 10SM CLR 36/06 A3011 RMK A01
KMHV 012000Z AUTO VRB06KT 10SM CLR 35/07 A3012 RMK A01
KMHV 011940Z AUTO 26006KT 10SM CLR 35/07 A3012 RMK A01